Flight Briefing for CPX311

Departure Arrival
Chicago/Rockford International Airport (KRFD)
Click to view FAA NOTAMS
Lehigh Valley International Airport (KABE)
Click to view FAA NOTAMS
Departure Time Arrival Time
N/A N/A
Aircraft Distance
B767-300BDSF 623nm
Departure METAR Arrival METAR
KRFD 181454Z 22003KT 9SM FEW018 01/M01 A3039 RMK AO2 SNE15 SLP300 P0001 60001 T00111011 51009 KABE 181451Z 34003KT 10SM CLR 04/M11 A3030 RMK AO2 SLP264 T00391106 $
Suggested Route
QUOTE JOT J60 PSB V30 ETX


View recent IFR Routes data
Notes



Charts and Procedures

Charts for KRFD
No chart available
Charts for KABE
No chart available

Windy.com Weather Map